sensor_id;sensor_type;location;lat;lon;timestamp;P1;durP1;ratioP1;P2;durP2;ratioP2
12687;SDS011;6408;59.388;17.798;2023-04-01T00:35:46;3.07;;;1.40;;
12687;SDS011;6408;59.388;17.798;2023-04-01T00:38:51;4.53;;;1.23;;
12687;SDS011;6408;59.388;17.798;2023-04-01T00:41:54;2.00;;;1.23;;
12687;SDS011;6408;59.388;17.798;2023-04-01T00:48:48;1.73;;;1.40;;
12687;SDS011;6408;59.388;17.798;2023-04-01T01:09:31;1.00;;;0.97;;
12687;SDS011;6408;59.388;17.798;2023-04-01T01:12:46;1.73;;;1.10;;
12687;SDS011;6408;59.388;17.798;2023-04-01T01:25:48;2.10;;;1.33;;
12687;SDS011;6408;59.388;17.798;2023-04-01T01:35:47;3.63;;;1.40;;
12687;SDS011;6408;59.388;17.798;2023-04-01T01:58:51;1.50;;;1.13;;
12687;SDS011;6408;59.388;17.798;2023-04-01T02:05:01;1.47;;;1.13;;
12687;SDS011;6408;59.388;17.798;2023-04-01T02:11:17;2.17;;;1.30;;
12687;SDS011;6408;59.388;17.798;2023-04-01T02:38:38;1.90;;;1.30;;
12687;SDS011;6408;59.388;17.798;2023-04-01T02:41:45;1.17;;;1.07;;
12687;SDS011;6408;59.388;17.798;2023-04-01T02:44:14;2.50;;;1.30;;
12687;SDS011;6408;59.388;17.798;2023-04-01T02:46:42;1.80;;;1.40;;
12687;SDS011;6408;59.388;17.798;2023-04-01T02:49:35;1.60;;;1.40;;
12687;SDS011;6408;59.388;17.798;2023-04-01T04:13:47;3.40;;;1.30;;
12687;SDS011;6408;59.388;17.798;2023-04-01T04:16:40;1.57;;;1.00;;
12687;SDS011;6408;59.388;17.798;2023-04-01T04:22:47;1.23;;;1.13;;
12687;SDS011;6408;59.388;17.798;2023-04-01T05:02:36;4.20;;;1.30;;
12687;SDS011;6408;59.388;17.798;2023-04-01T05:05:17;1.30;;;1.20;;
12687;SDS011;6408;59.388;17.798;2023-04-01T05:08:00;0.90;;;0.90;;
12687;SDS011;6408;59.388;17.798;2023-04-01T05:10:35;1.43;;;1.10;;
12687;SDS011;6408;59.388;17.798;2023-04-01T05:13:11;1.13;;;1.00;;
12687;SDS011;6408;59.388;17.798;2023-04-01T05:15:43;1.73;;;1.10;;
12687;SDS011;6408;59.388;17.798;2023-04-01T05:18:34;1.80;;;0.90;;
12687;SDS011;6408;59.388;17.798;2023-04-01T05:21:10;1.70;;;1.20;;
12687;SDS011;6408;59.388;17.798;2023-04-01T05:23:41;2.90;;;1.80;;
12687;SDS011;6408;59.388;17.798;2023-04-01T05:26:11;1.20;;;1.10;;
12687;SDS011;6408;59.388;17.798;2023-04-01T05:28:39;1.40;;;1.00;;
12687;SDS011;6408;59.388;17.798;2023-04-01T05:31:11;1.03;;;0.93;;
12687;SDS011;6408;59.388;17.798;2023-04-01T05:33:47;1.50;;;1.20;;
12687;SDS011;6408;59.388;17.798;2023-04-01T05:36:15;1.40;;;1.10;;
12687;SDS011;6408;59.388;17.798;2023-04-01T05:38:43;2.53;;;1.00;;
12687;SDS011;6408;59.388;17.798;2023-04-01T05:41:12;2.37;;;1.10;;
12687;SDS011;6408;59.388;17.798;2023-04-01T05:43:40;1.27;;;1.10;;
12687;SDS011;6408;59.388;17.798;2023-04-01T05:46:08;1.97;;;1.10;;
12687;SDS011;6408;59.388;17.798;2023-04-01T05:48:35;1.90;;;1.00;;
12687;SDS011;6408;59.388;17.798;2023-04-01T05:53:48;1.03;;;0.97;;
12687;SDS011;6408;59.388;17.798;2023-04-01T05:56:22;1.87;;;1.00;;
12687;SDS011;6408;59.388;17.798;2023-04-01T05:59:47;1.50;;;1.00;;
12687;SDS011;6408;59.388;17.798;2023-04-01T06:02:22;1.97;;;1.00;;
12687;SDS011;6408;59.388;17.798;2023-04-01T06:05:03;1.93;;;1.00;;
12687;SDS011;6408;59.388;17.798;2023-04-01T06:11:37;1.00;;;0.90;;
12687;SDS011;6408;59.388;17.798;2023-04-01T06:15:01;1.17;;;1.03;;
12687;SDS011;6408;59.388;17.798;2023-04-01T06:24:17;2.03;;;0.90;;
12687;SDS011;6408;59.388;17.798;2023-04-01T06:33:12;2.20;;;1.10;;
12687;SDS011;6408;59.388;17.798;2023-04-01T06:45:08;1.85;;;1.30;;
12687;SDS011;6408;59.388;17.798;2023-04-01T06:51:07;1.20;;;1.00;;
12687;SDS011;6408;59.388;17.798;2023-04-01T06:54:40;1.17;;;1.00;;
12687;SDS011;6408;59.388;17.798;2023-04-01T06:57:20;1.85;;;1.33;;
12687;SDS011;6408;59.388;17.798;2023-04-01T06:59:55;1.23;;;0.93;;
12687;SDS011;6408;59.388;17.798;2023-04-01T07:02:54;1.10;;;0.93;;
12687;SDS011;6408;59.388;17.798;2023-04-01T07:05:47;1.38;;;0.80;;
12687;SDS011;6408;59.388;17.798;2023-04-01T07:08:36;1.70;;;1.30;;
12687;SDS011;6408;59.388;17.798;2023-04-01T07:11:09;1.85;;;1.27;;
12687;SDS011;6408;59.388;17.798;2023-04-01T07:13:48;1.65;;;1.10;;
12687;SDS011;6408;59.388;17.798;2023-04-01T07:16:21;1.88;;;0.93;;
12687;SDS011;6408;59.388;17.798;2023-04-01T07:18:56;1.35;;;1.10;;
12687;SDS011;6408;59.388;17.798;2023-04-01T07:24:51;2.67;;;1.10;;
12687;SDS011;6408;59.388;17.798;2023-04-01T07:27:37;0.80;;;0.80;;
12687;SDS011;6408;59.388;17.798;2023-04-01T07:33:50;1.15;;;0.93;;
12687;SDS011;6408;59.388;17.798;2023-04-01T07:36:39;2.47;;;1.13;;
12687;SDS011;6408;59.388;17.798;2023-04-01T07:39:35;1.55;;;0.98;;
12687;SDS011;6408;59.388;17.798;2023-04-01T07:42:27;4.43;;;1.23;;
12687;SDS011;6408;59.388;17.798;2023-04-01T07:45:28;1.75;;;1.40;;
12687;SDS011;6408;59.388;17.798;2023-04-01T07:48:14;1.10;;;1.00;;
12687;SDS011;6408;59.388;17.798;2023-04-01T07:50:51;1.65;;;0.80;;
12687;SDS011;6408;59.388;17.798;2023-04-01T07:53:30;2.38;;;1.10;;
12687;SDS011;6408;59.388;17.798;2023-04-01T07:56:18;2.05;;;0.90;;
12687;SDS011;6408;59.388;17.798;2023-04-01T08:05:36;0.98;;;0.85;;
12687;SDS011;6408;59.388;17.798;2023-04-01T08:08:16;1.88;;;1.10;;
12687;SDS011;6408;59.388;17.798;2023-04-01T08:10:55;1.58;;;0.70;;
12687;SDS011;6408;59.388;17.798;2023-04-01T08:13:33;3.83;;;1.30;;
12687;SDS011;6408;59.388;17.798;2023-04-01T08:16:11;1.52;;;0.80;;
12687;SDS011;6408;59.388;17.798;2023-04-01T08:18:49;1.63;;;1.00;;
12687;SDS011;6408;59.388;17.798;2023-04-01T08:21:31;3.55;;;1.00;;
12687;SDS011;6408;59.388;17.798;2023-04-01T08:24:06;4.70;;;0.80;;
12687;SDS011;6408;59.388;17.798;2023-04-01T08:27:06;1.53;;;1.20;;
12687;SDS011;6408;59.388;17.798;2023-04-01T08:29:40;3.17;;;1.00;;
12687;SDS011;6408;59.388;17.798;2023-04-01T08:32:23;1.33;;;1.17;;
12687;SDS011;6408;59.388;17.798;2023-04-01T08:35:07;3.20;;;0.80;;
12687;SDS011;6408;59.388;17.798;2023-04-01T08:37:39;1.20;;;0.77;;
12687;SDS011;6408;59.388;17.798;2023-04-01T08:41:07;0.67;;;0.60;;
12687;SDS011;6408;59.388;17.798;2023-04-01T08:43:57;1.37;;;0.90;;
12687;SDS011;6408;59.388;17.798;2023-04-01T08:47:00;7.03;;;1.30;;
12687;SDS011;6408;59.388;17.798;2023-04-01T08:50:19;1.27;;;0.80;;
12687;SDS011;6408;59.388;17.798;2023-04-01T08:56:22;1.53;;;0.80;;
12687;SDS011;6408;59.388;17.798;2023-04-01T08:59:19;1.40;;;0.77;;
12687;SDS011;6408;59.388;17.798;2023-04-01T09:05:18;1.00;;;0.87;;
12687;SDS011;6408;59.388;17.798;2023-04-01T09:08:23;2.00;;;0.70;;
12687;SDS011;6408;59.388;17.798;2023-04-01T09:11:08;1.13;;;0.87;;
12687;SDS011;6408;59.388;17.798;2023-04-01T09:14:19;1.30;;;0.73;;
12687;SDS011;6408;59.388;17.798;2023-04-01T09:27:19;2.43;;;0.80;;
12687;SDS011;6408;59.388;17.798;2023-04-01T09:36:44;1.63;;;0.83;;
12687;SDS011;6408;59.388;17.798;2023-04-01T09:39:31;1.43;;;0.93;;
12687;SDS011;6408;59.388;17.798;2023-04-01T09:45:57;1.70;;;0.60;;
12687;SDS011;6408;59.388;17.798;2023-04-01T09:51:52;2.07;;;0.80;;
12687;SDS011;6408;59.388;17.798;2023-04-01T09:54:52;1.30;;;0.80;;
12687;SDS011;6408;59.388;17.798;2023-04-01T09:57:50;1.83;;;0.80;;
12687;SDS011;6408;59.388;17.798;2023-04-01T10:01:01;2.33;;;1.00;;
12687;SDS011;6408;59.388;17.798;2023-04-01T10:07:28;1.80;;;0.70;;
12687;SDS011;6408;59.388;17.798;2023-04-01T10:26:55;1.97;;;0.60;;
12687;SDS011;6408;59.388;17.798;2023-04-01T10:36:18;4.33;;;0.60;;
12687;SDS011;6408;59.388;17.798;2023-04-01T10:42:24;3.73;;;0.67;;
12687;SDS011;6408;59.388;17.798;2023-04-01T10:45:32;0.87;;;0.53;;
12687;SDS011;6408;59.388;17.798;2023-04-01T10:48:31;1.03;;;0.57;;
12687;SDS011;6408;59.388;17.798;2023-04-01T10:54:45;0.67;;;0.60;;
12687;SDS011;6408;59.388;17.798;2023-04-01T10:57:23;2.17;;;0.53;;
12687;SDS011;6408;59.388;17.798;2023-04-01T11:00:45;2.73;;;0.60;;
12687;SDS011;6408;59.388;17.798;2023-04-01T11:04:06;1.07;;;0.67;;
12687;SDS011;6408;59.388;17.798;2023-04-01T11:07:09;0.70;;;0.50;;
12687;SDS011;6408;59.388;17.798;2023-04-01T11:16:27;0.80;;;0.50;;
12687;SDS011;6408;59.388;17.798;2023-04-01T11:19:27;0.20;;;0.20;;
12687;SDS011;6408;59.388;17.798;2023-04-01T11:22:24;0.67;;;0.30;;
12687;SDS011;6408;59.388;17.798;2023-04-01T11:25:19;1.03;;;0.70;;
12687;SDS011;6408;59.388;17.798;2023-04-01T11:31:21;0.77;;;0.40;;
12687;SDS011;6408;59.388;17.798;2023-04-01T11:34:16;2.23;;;0.30;;
12687;SDS011;6408;59.388;17.798;2023-04-01T11:37:12;0.60;;;0.50;;
12687;SDS011;6408;59.388;17.798;2023-04-01T11:40:05;2.27;;;0.30;;
12687;SDS011;6408;59.388;17.798;2023-04-01T11:42:52;1.23;;;0.47;;
12687;SDS011;6408;59.388;17.798;2023-04-01T11:45:30;1.63;;;0.53;;
12687;SDS011;6408;59.388;17.798;2023-04-01T11:48:15;2.33;;;0.40;;
12687;SDS011;6408;59.388;17.798;2023-04-01T11:51:00;1.27;;;0.50;;
12687;SDS011;6408;59.388;17.798;2023-04-01T11:53:41;0.57;;;0.20;;
12687;SDS011;6408;59.388;17.798;2023-04-01T11:56:31;1.93;;;0.40;;
12687;SDS011;6408;59.388;17.798;2023-04-01T11:59:13;1.80;;;0.80;;
12687;SDS011;6408;59.388;17.798;2023-04-01T12:02:08;0.30;;;0.30;;
12687;SDS011;6408;59.388;17.798;2023-04-01T12:04:52;0.70;;;0.40;;
12687;SDS011;6408;59.388;17.798;2023-04-01T12:08:02;0.90;;;0.50;;
12687;SDS011;6408;59.388;17.798;2023-04-01T12:10:44;1.73;;;0.37;;
12687;SDS011;6408;59.388;17.798;2023-04-01T12:13:24;0.80;;;0.40;;
12687;SDS011;6408;59.388;17.798;2023-04-01T12:16:04;1.73;;;0.40;;
12687;SDS011;6408;59.388;17.798;2023-04-01T12:18:48;2.73;;;0.30;;
12687;SDS011;6408;59.388;17.798;2023-04-01T12:21:25;2.17;;;0.33;;
12687;SDS011;6408;59.388;17.798;2023-04-01T12:24:04;0.43;;;0.40;;
12687;SDS011;6408;59.388;17.798;2023-04-01T12:26:55;0.47;;;0.37;;
12687;SDS011;6408;59.388;17.798;2023-04-01T12:29:43;0.30;;;0.23;;
12687;SDS011;6408;59.388;17.798;2023-04-01T12:38:17;0.77;;;0.30;;
12687;SDS011;6408;59.388;17.798;2023-04-01T12:41:01;1.23;;;0.30;;
12687;SDS011;6408;59.388;17.798;2023-04-01T12:46:39;0.37;;;0.30;;
12687;SDS011;6408;59.388;17.798;2023-04-01T12:49:43;0.27;;;0.20;;
12687;SDS011;6408;59.388;17.798;2023-04-01T12:52:23;0.30;;;0.20;;
12687;SDS011;6408;59.388;17.798;2023-04-01T12:58:47;1.10;;;0.40;;
12687;SDS011;6408;59.388;17.798;2023-04-01T13:08:00;1.80;;;0.50;;
12687;SDS011;6408;59.388;17.798;2023-04-01T13:10:55;4.80;;;0.30;;
12687;SDS011;6408;59.388;17.798;2023-04-01T13:13:42;0.23;;;0.20;;
12687;SDS011;6408;59.388;17.798;2023-04-01T13:16:33;1.17;;;0.40;;
12687;SDS011;6408;59.388;17.798;2023-04-01T13:19:20;1.43;;;0.30;;
12687;SDS011;6408;59.388;17.798;2023-04-01T13:22:08;0.87;;;0.50;;
12687;SDS011;6408;59.388;17.798;2023-04-01T13:24:44;0.57;;;0.43;;
12687;SDS011;6408;59.388;17.798;2023-04-01T13:27:20;0.93;;;0.50;;
12687;SDS011;6408;59.388;17.798;2023-04-01T13:29:59;0.83;;;0.20;;
12687;SDS011;6408;59.388;17.798;2023-04-01T13:32:50;0.53;;;0.40;;
12687;SDS011;6408;59.388;17.798;2023-04-01T13:35:30;1.03;;;0.20;;
12687;SDS011;6408;59.388;17.798;2023-04-01T13:38:26;0.47;;;0.47;;
12687;SDS011;6408;59.388;17.798;2023-04-01T13:41:20;0.13;;;0.13;;
12687;SDS011;6408;59.388;17.798;2023-04-01T13:47:10;0.97;;;0.67;;
12687;SDS011;6408;59.388;17.798;2023-04-01T13:56:37;0.63;;;0.33;;
12687;SDS011;6408;59.388;17.798;2023-04-01T14:08:48;0.57;;;0.30;;
12687;SDS011;6408;59.388;17.798;2023-04-01T14:11:42;3.10;;;0.60;;
12687;SDS011;6408;59.388;17.798;2023-04-01T14:14:20;0.73;;;0.30;;
12687;SDS011;6408;59.388;17.798;2023-04-01T14:17:18;1.53;;;0.40;;
12687;SDS011;6408;59.388;17.798;2023-04-01T14:20:17;1.70;;;0.23;;
12687;SDS011;6408;59.388;17.798;2023-04-01T14:23:09;1.03;;;0.40;;
12687;SDS011;6408;59.388;17.798;2023-04-01T14:32:07;0.63;;;0.40;;
12687;SDS011;6408;59.388;17.798;2023-04-01T14:34:47;0.43;;;0.43;;
12687;SDS011;6408;59.388;17.798;2023-04-01T14:40:34;0.80;;;0.70;;
12687;SDS011;6408;59.388;17.798;2023-04-01T14:49:50;1.73;;;0.47;;
12687;SDS011;6408;59.388;17.798;2023-04-01T14:52:25;2.90;;;0.50;;
12687;SDS011;6408;59.388;17.798;2023-04-01T14:54:57;1.40;;;0.60;;
12687;SDS011;6408;59.388;17.798;2023-04-01T14:57:38;1.63;;;0.47;;
12687;SDS011;6408;59.388;17.798;2023-04-01T15:00:20;0.40;;;0.30;;
12687;SDS011;6408;59.388;17.798;2023-04-01T15:02:57;1.07;;;0.47;;
12687;SDS011;6408;59.388;17.798;2023-04-01T15:05:38;1.70;;;0.63;;
12687;SDS011;6408;59.388;17.798;2023-04-01T15:08:21;0.93;;;0.67;;
12687;SDS011;6408;59.388;17.798;2023-04-01T15:16:59;1.00;;;0.60;;
12687;SDS011;6408;59.388;17.798;2023-04-01T15:19:47;1.37;;;0.70;;
12687;SDS011;6408;59.388;17.798;2023-04-01T15:22:43;1.37;;;0.67;;
12687;SDS011;6408;59.388;17.798;2023-04-01T15:25:31;1.63;;;0.60;;
12687;SDS011;6408;59.388;17.798;2023-04-01T15:28:32;1.67;;;0.50;;
12687;SDS011;6408;59.388;17.798;2023-04-01T15:31:22;0.23;;;0.23;;
12687;SDS011;6408;59.388;17.798;2023-04-01T15:34:09;1.30;;;0.67;;
12687;SDS011;6408;59.388;17.798;2023-04-01T15:37:01;1.43;;;0.70;;
12687;SDS011;6408;59.388;17.798;2023-04-01T15:39:52;0.63;;;0.47;;
12687;SDS011;6408;59.388;17.798;2023-04-01T15:42:31;1.00;;;0.57;;
12687;SDS011;6408;59.388;17.798;2023-04-01T15:45:12;1.13;;;0.60;;
12687;SDS011;6408;59.388;17.798;2023-04-01T15:48:13;2.40;;;0.57;;
12687;SDS011;6408;59.388;17.798;2023-04-01T15:54:05;1.47;;;0.80;;
12687;SDS011;6408;59.388;17.798;2023-04-01T15:56:53;1.40;;;0.70;;
12687;SDS011;6408;59.388;17.798;2023-04-01T15:59:54;0.70;;;0.50;;
12687;SDS011;6408;59.388;17.798;2023-04-01T16:02:38;1.13;;;0.40;;
12687;SDS011;6408;59.388;17.798;2023-04-01T16:05:30;0.63;;;0.53;;
12687;SDS011;6408;59.388;17.798;2023-04-01T16:08:09;1.27;;;0.77;;
12687;SDS011;6408;59.388;17.798;2023-04-01T16:11:11;2.23;;;1.00;;
12687;SDS011;6408;59.388;17.798;2023-04-01T16:13:54;2.07;;;0.60;;
12687;SDS011;6408;59.388;17.798;2023-04-01T16:20:40;0.50;;;0.50;;
12687;SDS011;6408;59.388;17.798;2023-04-01T16:23:22;1.03;;;0.57;;
12687;SDS011;6408;59.388;17.798;2023-04-01T16:26:13;1.33;;;0.60;;
12687;SDS011;6408;59.388;17.798;2023-04-01T16:29:02;1.40;;;0.60;;
12687;SDS011;6408;59.388;17.798;2023-04-01T16:31:43;3.00;;;0.73;;
12687;SDS011;6408;59.388;17.798;2023-04-01T16:34:26;3.27;;;0.60;;
12687;SDS011;6408;59.388;17.798;2023-04-01T16:37:07;2.10;;;1.00;;
12687;SDS011;6408;59.388;17.798;2023-04-01T16:39:44;2.27;;;0.90;;
12687;SDS011;6408;59.388;17.798;2023-04-01T16:42:28;2.50;;;0.80;;
12687;SDS011;6408;59.388;17.798;2023-04-01T16:45:06;4.07;;;0.97;;
12687;SDS011;6408;59.388;17.798;2023-04-01T16:47:48;3.43;;;0.83;;
12687;SDS011;6408;59.388;17.798;2023-04-01T16:50:21;1.37;;;0.83;;
12687;SDS011;6408;59.388;17.798;2023-04-01T16:53:10;1.43;;;0.70;;
12687;SDS011;6408;59.388;17.798;2023-04-01T16:55:46;2.87;;;0.50;;
12687;SDS011;6408;59.388;17.798;2023-04-01T16:58:20;3.07;;;0.80;;
12687;SDS011;6408;59.388;17.798;2023-04-01T17:01:00;3.03;;;1.67;;
12687;SDS011;6408;59.388;17.798;2023-04-01T17:03:36;1.70;;;0.70;;
12687;SDS011;6408;59.388;17.798;2023-04-01T17:06:30;2.83;;;0.73;;
12687;SDS011;6408;59.388;17.798;2023-04-01T17:09:13;1.67;;;0.90;;
12687;SDS011;6408;59.388;17.798;2023-04-01T17:11:54;1.43;;;0.70;;
12687;SDS011;6408;59.388;17.798;2023-04-01T17:14:31;2.70;;;1.03;;
12687;SDS011;6408;59.388;17.798;2023-04-01T17:17:24;4.00;;;1.10;;
12687;SDS011;6408;59.388;17.798;2023-04-01T17:20:18;1.83;;;1.00;;
12687;SDS011;6408;59.388;17.798;2023-04-01T17:23:14;2.30;;;1.07;;
12687;SDS011;6408;59.388;17.798;2023-04-01T17:28:56;5.67;;;1.17;;
12687;SDS011;6408;59.388;17.798;2023-04-01T17:31:36;1.93;;;1.00;;
12687;SDS011;6408;59.388;17.798;2023-04-01T17:34:22;3.07;;;1.20;;
12687;SDS011;6408;59.388;17.798;2023-04-01T17:37:20;2.27;;;0.70;;
12687;SDS011;6408;59.388;17.798;2023-04-01T17:40:00;2.40;;;1.40;;
12687;SDS011;6408;59.388;17.798;2023-04-01T17:42:55;3.73;;;1.70;;
12687;SDS011;6408;59.388;17.798;2023-04-01T17:45:31;2.60;;;1.33;;
12687;SDS011;6408;59.388;17.798;2023-04-01T17:48:18;4.33;;;1.60;;
12687;SDS011;6408;59.388;17.798;2023-04-01T17:53:54;2.80;;;1.23;;
12687;SDS011;6408;59.388;17.798;2023-04-01T17:56:45;3.30;;;1.23;;
12687;SDS011;6408;59.388;17.798;2023-04-01T17:59:31;3.90;;;1.50;;
12687;SDS011;6408;59.388;17.798;2023-04-01T18:02:11;3.23;;;1.33;;
12687;SDS011;6408;59.388;17.798;2023-04-01T18:04:53;5.27;;;1.40;;
12687;SDS011;6408;59.388;17.798;2023-04-01T18:07:50;2.20;;;1.17;;
12687;SDS011;6408;59.388;17.798;2023-04-01T18:10:40;4.27;;;1.23;;
12687;SDS011;6408;59.388;17.798;2023-04-01T18:13:37;6.10;;;1.27;;
12687;SDS011;6408;59.388;17.798;2023-04-01T18:16:22;6.00;;;1.63;;
12687;SDS011;6408;59.388;17.798;2023-04-01T18:19:02;4.77;;;1.70;;
12687;SDS011;6408;59.388;17.798;2023-04-01T18:21:43;3.30;;;1.20;;
12687;SDS011;6408;59.388;17.798;2023-04-01T18:24:18;7.17;;;1.43;;
12687;SDS011;6408;59.388;17.798;2023-04-01T18:27:00;5.87;;;1.33;;
12687;SDS011;6408;59.388;17.798;2023-04-01T18:29:33;5.87;;;1.27;;
12687;SDS011;6408;59.388;17.798;2023-04-01T18:32:15;5.07;;;1.50;;
12687;SDS011;6408;59.388;17.798;2023-04-01T18:35:02;3.40;;;1.33;;
12687;SDS011;6408;59.388;17.798;2023-04-01T18:38:00;4.13;;;1.30;;
12687;SDS011;6408;59.388;17.798;2023-04-01T18:40:48;2.67;;;1.43;;
12687;SDS011;6408;59.388;17.798;2023-04-01T18:43:22;3.33;;;1.40;;
12687;SDS011;6408;59.388;17.798;2023-04-01T18:46:03;3.33;;;1.40;;
12687;SDS011;6408;59.388;17.798;2023-04-01T18:48:49;7.90;;;1.83;;
12687;SDS011;6408;59.388;17.798;2023-04-01T18:51:34;4.10;;;1.50;;
12687;SDS011;6408;59.388;17.798;2023-04-01T18:54:12;2.53;;;1.40;;
12687;SDS011;6408;59.388;17.798;2023-04-01T18:56:47;3.77;;;1.43;;
12687;SDS011;6408;59.388;17.798;2023-04-01T18:59:21;2.93;;;1.40;;
12687;SDS011;6408;59.388;17.798;2023-04-01T19:02:00;4.00;;;1.40;;
12687;SDS011;6408;59.388;17.798;2023-04-01T19:04:41;4.97;;;1.10;;
12687;SDS011;6408;59.388;17.798;2023-04-01T19:10:26;2.03;;;1.20;;
12687;SDS011;6408;59.388;17.798;2023-04-01T19:13:10;4.67;;;1.40;;
12687;SDS011;6408;59.388;17.798;2023-04-01T19:15:50;5.43;;;1.13;;
12687;SDS011;6408;59.388;17.798;2023-04-01T19:18:28;6.20;;;1.87;;
12687;SDS011;6408;59.388;17.798;2023-04-01T19:21:07;6.33;;;1.90;;
12687;SDS011;6408;59.388;17.798;2023-04-01T19:26:53;4.53;;;1.47;;
12687;SDS011;6408;59.388;17.798;2023-04-01T19:29:43;4.13;;;1.67;;
12687;SDS011;6408;59.388;17.798;2023-04-01T19:32:34;3.63;;;1.37;;
12687;SDS011;6408;59.388;17.798;2023-04-01T19:35:22;3.97;;;1.30;;
12687;SDS011;6408;59.388;17.798;2023-04-01T19:38:04;2.07;;;1.03;;
12687;SDS011;6408;59.388;17.798;2023-04-01T19:40:55;1.80;;;1.07;;
12687;SDS011;6408;59.388;17.798;2023-04-01T19:43:33;3.03;;;1.40;;
12687;SDS011;6408;59.388;17.798;2023-04-01T19:46:25;5.83;;;1.50;;
12687;SDS011;6408;59.388;17.798;2023-04-01T19:49:08;3.70;;;1.10;;
12687;SDS011;6408;59.388;17.798;2023-04-01T19:51:55;3.10;;;1.30;;
12687;SDS011;6408;59.388;17.798;2023-04-01T19:54:38;8.13;;;1.57;;
12687;SDS011;6408;59.388;17.798;2023-04-01T19:57:23;3.10;;;1.50;;
12687;SDS011;6408;59.388;17.798;2023-04-01T20:00:06;3.00;;;1.30;;
12687;SDS011;6408;59.388;17.798;2023-04-01T20:03:01;3.03;;;1.40;;
12687;SDS011;6408;59.388;17.798;2023-04-01T20:05:49;3.20;;;1.23;;
12687;SDS011;6408;59.388;17.798;2023-04-01T20:08:45;5.13;;;1.40;;
12687;SDS011;6408;59.388;17.798;2023-04-01T20:11:27;2.47;;;1.43;;
12687;SDS011;6408;59.388;17.798;2023-04-01T20:14:07;11.20;;;1.40;;
12687;SDS011;6408;59.388;17.798;2023-04-01T20:16:49;5.90;;;1.40;;
12687;SDS011;6408;59.388;17.798;2023-04-01T20:19:27;4.20;;;1.57;;
12687;SDS011;6408;59.388;17.798;2023-04-01T20:22:05;6.87;;;1.67;;
12687;SDS011;6408;59.388;17.798;2023-04-01T20:24:47;6.37;;;1.10;;
12687;SDS011;6408;59.388;17.798;2023-04-01T20:27:35;6.13;;;1.50;;
12687;SDS011;6408;59.388;17.798;2023-04-01T20:30:33;2.07;;;1.17;;
12687;SDS011;6408;59.388;17.798;2023-04-01T20:33:47;2.13;;;0.97;;
12687;SDS011;6408;59.388;17.798;2023-04-01T20:36:51;3.77;;;0.97;;
12687;SDS011;6408;59.388;17.798;2023-04-01T20:39:52;7.87;;;1.60;;
12687;SDS011;6408;59.388;17.798;2023-04-01T20:46:05;7.40;;;1.30;;
12687;SDS011;6408;59.388;17.798;2023-04-01T20:49:02;4.97;;;1.43;;
12687;SDS011;6408;59.388;17.798;2023-04-01T20:52:23;4.67;;;1.40;;
12687;SDS011;6408;59.388;17.798;2023-04-01T20:55:05;3.50;;;1.30;;
12687;SDS011;6408;59.388;17.798;2023-04-01T20:58:08;5.43;;;1.70;;
12687;SDS011;6408;59.388;17.798;2023-04-01T21:00:57;5.33;;;1.30;;
12687;SDS011;6408;59.388;17.798;2023-04-01T21:03:51;3.53;;;1.07;;
12687;SDS011;6408;59.388;17.798;2023-04-01T21:09:49;5.27;;;1.50;;
12687;SDS011;6408;59.388;17.798;2023-04-01T21:12:46;5.80;;;1.77;;
12687;SDS011;6408;59.388;17.798;2023-04-01T21:15:47;4.53;;;1.10;;
12687;SDS011;6408;59.388;17.798;2023-04-01T21:21:50;4.13;;;1.43;;
12687;SDS011;6408;59.388;17.798;2023-04-01T21:31:15;8.63;;;1.60;;
12687;SDS011;6408;59.388;17.798;2023-04-01T21:34:14;7.17;;;1.40;;
12687;SDS011;6408;59.388;17.798;2023-04-01T21:37:26;1.93;;;1.40;;
12687;SDS011;6408;59.388;17.798;2023-04-01T21:40:23;3.23;;;1.13;;
12687;SDS011;6408;59.388;17.798;2023-04-01T21:43:21;3.93;;;1.73;;
12687;SDS011;6408;59.388;17.798;2023-04-01T21:46:20;3.60;;;1.40;;
12687;SDS011;6408;59.388;17.798;2023-04-01T21:52:35;2.23;;;1.10;;
12687;SDS011;6408;59.388;17.798;2023-04-01T21:55:45;8.43;;;1.33;;
12687;SDS011;6408;59.388;17.798;2023-04-01T22:01:58;2.73;;;1.33;;
12687;SDS011;6408;59.388;17.798;2023-04-01T22:05:03;2.70;;;0.80;;
12687;SDS011;6408;59.388;17.798;2023-04-01T22:07:44;5.40;;;1.30;;
12687;SDS011;6408;59.388;17.798;2023-04-01T22:10:26;3.83;;;1.37;;
12687;SDS011;6408;59.388;17.798;2023-04-01T22:13:10;3.90;;;1.40;;
12687;SDS011;6408;59.388;17.798;2023-04-01T22:15:46;4.50;;;1.43;;
12687;SDS011;6408;59.388;17.798;2023-04-01T22:18:33;6.37;;;1.47;;
12687;SDS011;6408;59.388;17.798;2023-04-01T22:21:09;2.57;;;1.17;;
12687;SDS011;6408;59.388;17.798;2023-04-01T22:24:02;3.33;;;1.40;;
12687;SDS011;6408;59.388;17.798;2023-04-01T22:26:52;3.23;;;1.23;;
12687;SDS011;6408;59.388;17.798;2023-04-01T22:29:43;8.47;;;1.60;;
12687;SDS011;6408;59.388;17.798;2023-04-01T22:32:18;2.97;;;1.20;;
12687;SDS011;6408;59.388;17.798;2023-04-01T22:35:02;4.90;;;1.63;;
12687;SDS011;6408;59.388;17.798;2023-04-01T22:37:43;6.57;;;1.73;;
12687;SDS011;6408;59.388;17.798;2023-04-01T22:40:32;4.13;;;0.90;;
12687;SDS011;6408;59.388;17.798;2023-04-01T22:43:08;4.10;;;1.30;;
12687;SDS011;6408;59.388;17.798;2023-04-01T22:45:47;12.50;;;1.50;;
12687;SDS011;6408;59.388;17.798;2023-04-01T22:48:35;4.37;;;1.30;;
12687;SDS011;6408;59.388;17.798;2023-04-01T22:51:11;4.60;;;1.30;;
12687;SDS011;6408;59.388;17.798;2023-04-01T22:53:57;6.30;;;1.40;;
12687;SDS011;6408;59.388;17.798;2023-04-01T22:56:38;5.67;;;1.50;;
12687;SDS011;6408;59.388;17.798;2023-04-01T22:59:19;4.50;;;1.27;;
12687;SDS011;6408;59.388;17.798;2023-04-01T23:02:03;5.77;;;1.10;;
12687;SDS011;6408;59.388;17.798;2023-04-01T23:04:47;2.00;;;1.40;;
12687;SDS011;6408;59.388;17.798;2023-04-01T23:07:34;4.33;;;1.20;;
12687;SDS011;6408;59.388;17.798;2023-04-01T23:10:15;4.13;;;1.50;;
12687;SDS011;6408;59.388;17.798;2023-04-01T23:12:53;4.93;;;0.90;;
12687;SDS011;6408;59.388;17.798;2023-04-01T23:15:22;8.30;;;1.40;;
12687;SDS011;6408;59.388;17.798;2023-04-01T23:18:05;4.07;;;1.63;;
12687;SDS011;6408;59.388;17.798;2023-04-01T23:20:52;3.33;;;1.40;;
12687;SDS011;6408;59.388;17.798;2023-04-01T23:23:45;4.03;;;1.40;;
12687;SDS011;6408;59.388;17.798;2023-04-01T23:26:29;3.67;;;1.23;;
12687;SDS011;6408;59.388;17.798;2023-04-01T23:29:15;2.57;;;1.40;;
12687;SDS011;6408;59.388;17.798;2023-04-01T23:31:46;6.67;;;1.30;;
12687;SDS011;6408;59.388;17.798;2023-04-01T23:34:33;3.73;;;1.27;;
12687;SDS011;6408;59.388;17.798;2023-04-01T23:40:20;3.83;;;1.53;;
12687;SDS011;6408;59.388;17.798;2023-04-01T23:42:49;2.07;;;1.10;;
12687;SDS011;6408;59.388;17.798;2023-04-01T23:45:33;5.17;;;1.23;;
12687;SDS011;6408;59.388;17.798;2023-04-01T23:48:05;2.53;;;1.27;;
12687;SDS011;6408;59.388;17.798;2023-04-01T23:50:42;1.53;;;0.97;;
12687;SDS011;6408;59.388;17.798;2023-04-01T23:53:30;4.43;;;1.57;;
12687;SDS011;6408;59.388;17.798;2023-04-01T23:56:22;5.47;;;1.90;;
12687;SDS011;6408;59.388;17.798;2023-04-01T23:58:59;2.13;;;1.10;;
